createdAt,value
2018-01-21T00:01:10.798Z,93619
2018-01-21T00:03:38.894Z,93597
2018-01-21T00:06:06.983Z,93603
2018-01-21T00:08:35.154Z,93607
2018-01-21T00:11:03.193Z,93602
2018-01-21T00:13:31.250Z,93599
2018-01-21T00:16:00.094Z,93601
2018-01-21T00:18:29.263Z,93609
2018-01-21T00:20:57.377Z,93615
2018-01-21T00:23:25.437Z,93611
2018-01-21T00:25:53.522Z,93621
2018-01-21T00:28:21.588Z,93620
2018-01-21T00:30:49.625Z,93635
2018-01-21T00:33:18.453Z,93637
2018-01-21T00:35:46.503Z,93634
2018-01-21T00:38:14.565Z,93638
2018-01-21T00:40:44.276Z,93655
2018-01-21T00:43:13.109Z,93656
2018-01-21T00:45:41.168Z,93659
2018-01-21T00:48:09.215Z,93674
2018-01-21T00:50:37.276Z,93679
2018-01-21T00:53:05.333Z,93681
2018-01-21T00:55:33.416Z,93682
2018-01-21T00:58:01.486Z,93694
2018-01-21T01:00:30.837Z,93688
2018-01-21T01:03:00.781Z,93683
2018-01-21T01:05:28.903Z,93693
2018-01-21T01:07:56.955Z,93700
2018-01-21T01:10:25.011Z,93718
2018-01-21T01:12:53.758Z,93722
2018-01-21T01:15:22.213Z,93741
2018-01-21T01:17:50.266Z,93738
2018-01-21T01:20:18.314Z,93771
2018-01-21T01:22:47.142Z,93754
2018-01-21T01:25:15.190Z,93769
2018-01-21T01:27:44.045Z,93783
2018-01-21T01:30:12.118Z,93785
2018-01-21T01:32:40.186Z,93791
2018-01-21T01:35:08.262Z,93806
2018-01-21T01:37:36.354Z,93812
2018-01-21T01:40:05.229Z,93819
2018-01-21T01:42:33.304Z,93818
2018-01-21T01:45:03.047Z,93830
2018-01-21T01:47:31.100Z,93822
2018-01-21T01:49:59.701Z,93833
2018-01-21T01:52:27.771Z,93825
2018-01-21T01:54:56.764Z,93849
2018-01-21T01:57:24.869Z,93840
2018-01-21T01:59:53.729Z,93847
2018-01-21T02:02:21.794Z,93857
2018-01-21T02:04:49.849Z,93864
2018-01-21T02:07:17.901Z,93871
2018-01-21T02:09:46.730Z,93881
2018-01-21T02:12:14.825Z,93892
2018-01-21T02:14:42.889Z,93888
2018-01-21T02:17:10.982Z,93899
2018-01-21T02:19:39.045Z,93909
2018-01-21T02:22:07.088Z,93912
2018-01-21T02:24:35.205Z,93920
2018-01-21T02:27:03.286Z,93921
2018-01-21T02:29:32.098Z,93929
2018-01-21T02:32:01.395Z,93935
2018-01-21T02:34:29.453Z,93934
2018-01-21T02:36:57.535Z,93950
2018-01-21T02:39:25.598Z,93958
2018-01-21T02:41:53.647Z,93965
2018-01-21T02:44:21.710Z,93968
2018-01-21T02:46:50.530Z,93983
2018-01-21T02:49:18.642Z,93983
2018-01-21T02:51:46.739Z,94003
2018-01-21T02:54:14.786Z,93982
2018-01-21T02:56:43.269Z,93992
2018-01-21T02:59:11.909Z,94008
2018-01-21T03:01:40.024Z,94023
2018-01-21T03:04:08.103Z,94020
2018-01-21T03:06:36.146Z,94027
2018-01-21T03:09:04.209Z,94031
2018-01-21T03:11:33.064Z,94053
2018-01-21T03:14:01.123Z,94060
2018-01-21T03:16:29.174Z,94059
2018-01-21T03:18:57.227Z,94051
2018-01-21T03:21:26.049Z,94055
2018-01-21T03:23:54.115Z,94085
2018-01-21T03:26:22.945Z,94071
2018-01-21T03:28:51.021Z,94067
2018-01-21T03:31:19.167Z,94080
2018-01-21T03:33:47.232Z,94090
2018-01-21T03:36:16.061Z,94088
2018-01-21T03:38:44.158Z,94093
2018-01-21T03:41:12.220Z,94113
2018-01-21T03:43:40.281Z,94118
2018-01-21T03:46:08.341Z,94117
2018-01-21T03:48:36.406Z,94133
2018-01-21T03:51:04.534Z,94136
2018-01-21T03:53:32.603Z,94150
2018-01-21T03:56:00.674Z,94149
2018-01-21T03:58:28.729Z,94147
2018-01-21T04:00:56.783Z,94148
2018-01-21T04:03:25.609Z,94168
2018-01-21T04:05:53.664Z,94167
2018-01-21T04:08:21.729Z,94176
2018-01-21T04:10:50.546Z,94184
2018-01-21T04:13:19.060Z,94166
2018-01-21T04:15:47.109Z,94191
2018-01-21T04:18:15.157Z,94182
2018-01-21T04:20:43.986Z,94194
2018-01-21T04:23:12.047Z,94195
2018-01-21T04:25:40.106Z,94199
2018-01-21T04:28:08.945Z,94210
2018-01-21T04:30:37.012Z,94206
2018-01-21T04:33:05.065Z,94207
2018-01-21T04:35:33.125Z,94213
2018-01-21T04:38:03.060Z,94222
2018-01-21T04:40:31.117Z,94221
2018-01-21T04:42:59.937Z,94235
2018-01-21T04:45:28.418Z,94226
2018-01-21T04:47:56.506Z,94237
2018-01-21T04:50:24.567Z,94245
2018-01-21T04:52:52.622Z,94262
2018-01-21T04:55:21.473Z,94257
2018-01-21T04:57:49.629Z,94252
2018-01-21T05:00:17.721Z,94256
2018-01-21T05:02:45.806Z,94260
2018-01-21T05:05:13.885Z,94265
2018-01-21T05:07:41.965Z,94256
2018-01-21T05:10:10.034Z,94263
2018-01-21T05:12:38.097Z,94269
2018-01-21T05:15:06.186Z,94285
2018-01-21T05:17:34.261Z,94275
2018-01-21T05:20:03.467Z,94287
2018-01-21T05:22:32.462Z,94292
2018-01-21T05:25:00.522Z,94303
2018-01-21T05:27:28.582Z,94293
2018-01-21T05:29:56.638Z,94315
2018-01-21T05:32:25.447Z,94318
2018-01-21T05:34:53.514Z,94302
2018-01-21T05:37:21.558Z,94306
2018-01-21T05:39:49.614Z,94322
2018-01-21T05:42:17.670Z,94320
2018-01-21T05:44:45.726Z,94322
2018-01-21T05:47:13.829Z,94334
2018-01-21T05:49:41.890Z,94338
2018-01-21T05:52:09.949Z,94331
2018-01-21T05:54:38.006Z,94338
2018-01-21T05:57:06.818Z,94327
2018-01-21T05:59:38.012Z,94321
2018-01-21T06:02:06.050Z,94344
2018-01-21T06:04:34.153Z,94354
2018-01-21T06:07:02.218Z,94345
2018-01-21T06:09:30.278Z,94351
2018-01-21T06:11:58.389Z,94366
2018-01-21T06:14:26.453Z,94366
2018-01-21T06:16:54.543Z,94360
2018-01-21T06:19:22.606Z,94383
2018-01-21T06:21:50.663Z,94385
2018-01-21T06:24:18.774Z,94388
2018-01-21T06:26:46.838Z,94399
2018-01-21T06:29:14.930Z,94403
2018-01-21T06:31:45.096Z,94414
2018-01-21T06:34:13.905Z,94409
2018-01-21T06:36:41.966Z,94407
2018-01-21T06:39:10.804Z,94409
2018-01-21T06:41:38.861Z,94426
2018-01-21T06:44:06.920Z,94427
2018-01-21T06:46:34.966Z,94438
2018-01-21T06:49:03.110Z,94444
2018-01-21T06:51:31.161Z,94426
2018-01-21T06:53:59.242Z,94444
2018-01-21T06:56:27.281Z,94459
2018-01-21T06:58:56.094Z,94461
2018-01-21T07:01:24.145Z,94468
2018-01-21T07:03:52.965Z,94459
2018-01-21T07:06:21.085Z,94471
2018-01-21T07:08:49.138Z,94480
2018-01-21T07:11:17.239Z,94499
2018-01-21T07:13:45.306Z,94488
2018-01-21T07:16:13.437Z,94487
2018-01-21T07:18:42.288Z,94486
2018-01-21T07:21:10.354Z,94515
2018-01-21T07:23:38.430Z,94521
2018-01-21T07:26:06.494Z,94520
2018-01-21T07:28:35.393Z,94513
2018-01-21T07:31:03.474Z,94525
2018-01-21T07:33:32.318Z,94523
2018-01-21T07:36:01.143Z,94538
2018-01-21T07:38:29.205Z,94535
2018-01-21T07:40:57.257Z,94537
2018-01-21T07:43:26.106Z,94554
2018-01-21T07:45:54.182Z,94542
2018-01-21T07:48:22.234Z,94555
2018-01-21T07:50:50.298Z,94572
2018-01-21T07:53:18.366Z,94559
2018-01-21T07:55:47.276Z,94582
2018-01-21T07:58:15.313Z,94579
2018-01-21T08:00:43.472Z,94589
2018-01-21T08:03:11.542Z,94589
2018-01-21T08:05:39.618Z,94604
2018-01-21T08:08:07.685Z,94610
2018-01-21T08:10:36.076Z,94619
2018-01-21T08:13:04.153Z,94634
2018-01-21T08:15:32.296Z,94634
2018-01-21T08:18:00.817Z,94637
2018-01-21T08:20:28.898Z,94640
2018-01-21T08:22:56.937Z,94670
2018-01-21T08:25:25.021Z,94659
2018-01-21T08:27:53.086Z,94658
2018-01-21T08:30:21.197Z,94674
2018-01-21T08:32:49.246Z,94675
2018-01-21T08:35:22.951Z,94689
2018-01-21T08:37:56.545Z,94680
2018-01-21T08:40:30.070Z,94700
2018-01-21T08:42:58.121Z,94705
2018-01-21T08:45:26.240Z,94718
2018-01-21T08:47:54.282Z,94727
2018-01-21T08:50:22.380Z,94727
2018-01-21T08:52:50.442Z,94750
2018-01-21T08:55:18.502Z,94748
2018-01-21T08:57:46.579Z,94769
2018-01-21T09:00:15.901Z,94766
2018-01-21T09:02:43.954Z,94778
2018-01-21T09:05:12.047Z,94801
2018-01-21T09:07:40.141Z,94797
2018-01-21T09:10:08.218Z,94800
2018-01-21T09:12:36.935Z,94806
2018-01-21T09:15:05.096Z,94829
2018-01-21T09:17:33.161Z,94826
2018-01-21T09:20:01.226Z,94835
2018-01-21T09:22:29.285Z,94835
2018-01-21T09:24:57.326Z,94844
2018-01-21T09:27:25.381Z,94867
2018-01-21T09:29:53.425Z,94854
2018-01-21T09:32:21.524Z,94883
2018-01-21T09:34:49.581Z,94883
2018-01-21T09:37:17.653Z,94889
2018-01-21T09:39:45.764Z,94887
2018-01-21T09:42:13.818Z,94887
2018-01-21T09:44:41.902Z,94905
2018-01-21T09:47:09.973Z,94908
2018-01-21T09:49:38.026Z,94908
2018-01-21T09:52:07.205Z,94914
2018-01-21T09:54:36.011Z,94926
2018-01-21T09:57:04.086Z,94927
2018-01-21T09:59:32.921Z,94945
2018-01-21T10:02:01.002Z,94945
2018-01-21T10:04:29.054Z,94956
2018-01-21T10:06:57.114Z,94959
2018-01-21T10:09:25.223Z,94971
2018-01-21T10:11:53.277Z,94955
2018-01-21T10:14:21.375Z,94967
2018-01-21T10:16:49.442Z,94957
2018-01-21T10:19:17.527Z,94976
2018-01-21T10:21:45.603Z,94974
2018-01-21T10:24:13.648Z,94962
2018-01-21T10:26:41.755Z,94965
2018-01-21T10:29:10.257Z,94981
2018-01-21T10:31:38.325Z,94979
2018-01-21T10:34:06.400Z,94995
2018-01-21T10:36:34.469Z,94993
2018-01-21T10:39:02.509Z,95007
2018-01-21T10:41:30.565Z,94997
2018-01-21T10:43:59.417Z,95025
2018-01-21T10:46:27.473Z,95026
2018-01-21T10:48:55.560Z,95023
2018-01-21T10:51:23.613Z,95020
2018-01-21T10:53:51.766Z,95050
2018-01-21T10:56:19.821Z,95041
2018-01-21T10:58:49.531Z,95032
2018-01-21T11:01:17.541Z,95033
2018-01-21T11:03:45.661Z,95045
2018-01-21T11:06:13.738Z,95047
2018-01-21T11:08:41.816Z,95045
2018-01-21T11:11:09.861Z,95059
2018-01-21T11:13:38.894Z,95046
2018-01-21T11:16:06.959Z,95049
2018-01-21T11:18:35.026Z,95048
2018-01-21T11:21:03.090Z,95057
2018-01-21T11:23:31.145Z,95063
2018-01-21T11:25:59.963Z,95061
2018-01-21T11:28:28.037Z,95057
2018-01-21T11:30:56.107Z,95068
2018-01-21T11:33:24.154Z,95070
2018-01-21T11:35:53.013Z,95070
2018-01-21T11:38:21.090Z,95075
2018-01-21T11:40:49.148Z,95075
2018-01-21T11:43:17.214Z,95103
2018-01-21T11:45:45.270Z,95097
2018-01-21T11:48:13.390Z,95106
2018-01-21T11:50:43.950Z,95117
2018-01-21T11:53:11.998Z,95111
2018-01-21T11:55:40.063Z,95113
2018-01-21T11:58:08.151Z,95123
2018-01-21T12:00:36.215Z,95109
2018-01-21T12:03:04.942Z,95121
2018-01-21T12:05:33.102Z,95123
2018-01-21T12:08:01.173Z,95132
2018-01-21T12:10:29.238Z,95137
2018-01-21T12:12:57.293Z,95144
2018-01-21T12:15:25.373Z,95145
2018-01-21T12:17:53.478Z,95137
2018-01-21T12:20:21.599Z,95149
2018-01-21T12:22:52.384Z,95166
2018-01-21T12:25:20.474Z,95167
2018-01-21T12:27:48.534Z,95168
2018-01-21T12:30:16.620Z,95172
2018-01-21T12:32:44.669Z,95174
2018-01-21T12:35:12.778Z,95191
2018-01-21T12:37:40.838Z,95197
2018-01-21T12:40:10.828Z,95197
2018-01-21T12:42:40.781Z,95203
2018-01-21T12:45:08.870Z,95218
2018-01-21T12:47:36.937Z,95207
2018-01-21T12:50:05.036Z,95231
2018-01-21T12:52:33.082Z,95236
2018-01-21T12:55:01.143Z,95228
2018-01-21T12:57:29.287Z,95232
2018-01-21T12:59:58.156Z,95240
2018-01-21T13:02:26.221Z,95248
2018-01-21T13:04:54.286Z,95240
2018-01-21T13:07:22.379Z,95244
2018-01-21T13:09:50.488Z,95254
2018-01-21T13:12:18.522Z,95243
2018-01-21T13:14:46.601Z,95246
2018-01-21T13:17:14.661Z,95248
2018-01-21T13:19:42.749Z,95252
2018-01-21T13:22:10.825Z,95254
2018-01-21T13:24:38.907Z,95257
2018-01-21T13:27:06.985Z,95265
2018-01-21T13:29:35.042Z,95253
2018-01-21T13:32:03.097Z,95262
2018-01-21T13:34:31.150Z,95267
2018-01-21T13:36:59.219Z,95266
2018-01-21T13:39:27.269Z,95271
2018-01-21T13:41:55.329Z,95282
2018-01-21T13:44:23.409Z,95272
2018-01-21T13:46:51.512Z,95286
2018-01-21T13:49:19.565Z,95272
2018-01-21T13:51:47.635Z,95285
2018-01-21T13:54:15.694Z,95284
2018-01-21T13:56:43.789Z,95292
2018-01-21T13:59:11.922Z,95297
2018-01-21T14:01:41.888Z,95294
2018-01-21T14:04:09.952Z,95297
2018-01-21T14:06:38.046Z,95303
2018-01-21T14:09:11.931Z,95292
2018-01-21T14:11:39.970Z,95306
2018-01-21T14:14:08.821Z,95312
2018-01-21T14:16:36.890Z,95313
2018-01-21T14:19:05.003Z,95325
2018-01-21T14:21:33.050Z,95324
2018-01-21T14:24:01.113Z,95330
2018-01-21T14:26:29.264Z,95337
2018-01-21T14:28:58.158Z,95358
2018-01-21T14:31:27.014Z,95351
2018-01-21T14:33:55.063Z,95362
2018-01-21T14:36:23.188Z,95362
2018-01-21T14:38:51.246Z,95359
2018-01-21T14:41:19.786Z,95361
2018-01-21T14:43:47.852Z,95372
2018-01-21T14:46:16.036Z,95380
2018-01-21T14:48:44.565Z,95388
2018-01-21T14:51:12.625Z,95377
2018-01-21T14:53:40.701Z,95387
2018-01-21T14:56:08.822Z,95375
2018-01-21T14:58:38.393Z,95391
2018-01-21T15:01:06.454Z,95409
2018-01-21T15:03:35.166Z,95407
2018-01-21T15:06:03.271Z,95404
2018-01-21T15:08:31.329Z,95411
2018-01-21T15:10:59.490Z,95409
2018-01-21T15:13:27.533Z,95402
2018-01-21T15:15:55.609Z,95415
2018-01-21T15:18:23.697Z,95420
2018-01-21T15:20:51.797Z,95410
2018-01-21T15:23:19.871Z,95418
2018-01-21T15:25:48.189Z,95416
2018-01-21T15:28:17.025Z,95401
2018-01-21T15:30:45.071Z,95407
2018-01-21T15:33:13.960Z,95413
2018-01-21T15:35:43.021Z,95418
2018-01-21T15:38:11.128Z,95430
2018-01-21T15:40:39.193Z,95434
2018-01-21T15:43:07.242Z,95428
2018-01-21T15:45:35.309Z,95428
2018-01-21T15:48:03.449Z,95433
2018-01-21T15:50:32.294Z,95433
2018-01-21T15:53:00.404Z,95442
2018-01-21T15:55:28.508Z,95440
2018-01-21T15:57:57.334Z,95446
2018-01-21T16:00:25.444Z,95467
2018-01-21T16:02:53.566Z,95468
2018-01-21T16:05:21.620Z,95470
2018-01-21T16:07:50.433Z,95473
2018-01-21T16:10:18.499Z,95466
2018-01-21T16:12:46.545Z,95460
2018-01-21T16:15:15.412Z,95452
2018-01-21T16:17:43.901Z,95470
2018-01-21T16:20:12.142Z,95465
2018-01-21T16:22:40.177Z,95478
2018-01-21T16:25:08.280Z,95469
2018-01-21T16:27:37.087Z,95467
2018-01-21T16:30:05.131Z,95463
2018-01-21T16:32:33.996Z,95477
2018-01-21T16:35:02.137Z,95478
2018-01-21T16:37:48.010Z,95473
2018-01-21T16:40:16.125Z,95486
2018-01-21T16:42:44.444Z,95482
2018-01-21T16:45:12.533Z,95496
2018-01-21T16:47:41.574Z,95497
2018-01-21T16:50:09.624Z,95494
2018-01-21T16:52:37.772Z,95506
2018-01-21T16:55:06.668Z,95507
2018-01-21T16:57:34.712Z,95498
2018-01-21T17:00:03.353Z,95507
2018-01-21T17:02:32.232Z,95504
2018-01-21T17:05:01.046Z,95506
2018-01-21T17:07:29.134Z,95523
2018-01-21T17:09:57.185Z,95523
2018-01-21T17:12:26.033Z,95521
2018-01-21T17:14:54.061Z,95529
2018-01-21T17:17:22.181Z,95526
2018-01-21T17:19:50.261Z,95520
2018-01-21T17:22:18.322Z,95519
2018-01-21T17:24:46.414Z,95532
2018-01-21T17:27:15.930Z,95518
2018-01-21T17:29:45.116Z,95526
2018-01-21T17:32:13.220Z,95511
2018-01-21T17:34:41.327Z,95523
2018-01-21T17:37:10.138Z,95520
2018-01-21T17:39:38.253Z,95534
2018-01-21T17:42:06.343Z,95508
2018-01-21T17:44:35.894Z,95515
2018-01-21T17:47:04.013Z,95522
2018-01-21T17:49:32.107Z,95519
2018-01-21T17:52:00.257Z,95514
2018-01-21T17:54:28.309Z,95525
2018-01-21T17:56:56.378Z,95506
2018-01-21T17:59:24.504Z,95528
2018-01-21T18:01:52.549Z,95522
2018-01-21T18:04:20.644Z,95515
2018-01-21T18:06:48.713Z,95518
2018-01-21T18:09:17.014Z,95529
2018-01-21T18:11:45.798Z,95530
2018-01-21T18:14:14.506Z,95534
2018-01-21T18:16:42.603Z,95538
2018-01-21T18:19:10.733Z,95536
2018-01-21T18:21:38.856Z,95538
2018-01-21T18:24:06.913Z,95530
2018-01-21T18:26:35.074Z,95532
2018-01-21T18:29:03.181Z,95530
2018-01-21T18:31:31.288Z,95539
2018-01-21T18:34:00.145Z,95545
2018-01-21T18:36:28.283Z,95544
2018-01-21T18:38:56.365Z,95563
2018-01-21T18:41:25.217Z,95554
2018-01-21T18:43:54.084Z,95543
2018-01-21T18:46:22.839Z,95550
2018-01-21T18:48:50.874Z,95542
2018-01-21T18:51:19.691Z,95540
2018-01-21T18:53:47.805Z,95541
2018-01-21T18:56:17.220Z,95528
2018-01-21T18:58:46.438Z,95519
2018-01-21T19:01:14.586Z,95522
2018-01-21T19:03:42.706Z,95534
2018-01-21T19:06:10.746Z,95525
2018-01-21T19:08:38.901Z,95515
2018-01-21T19:11:07.050Z,95529
2018-01-21T19:13:35.937Z,95530
2018-01-21T19:16:04.798Z,95518
2018-01-21T19:18:34.650Z,95522
2018-01-21T19:21:03.531Z,95522
2018-01-21T19:23:33.137Z,95511
2018-01-21T19:26:01.182Z,95523
2018-01-21T19:28:29.302Z,95522
2018-01-21T19:30:57.346Z,95517
2018-01-21T19:33:25.521Z,95525
2018-01-21T19:35:53.703Z,95539
2018-01-21T19:38:25.572Z,95531
2018-01-21T19:40:53.665Z,95524
2018-01-21T19:43:36.310Z,95519
2018-01-21T19:46:04.419Z,95524
2018-01-21T19:48:32.557Z,95522
2018-01-21T19:51:01.390Z,95523
2018-01-21T19:53:29.457Z,95518
2018-01-21T19:55:57.594Z,95513
2018-01-21T19:58:26.485Z,95499
2018-01-21T20:00:55.341Z,95521
2018-01-21T20:03:23.445Z,95514
2018-01-21T20:05:51.537Z,95527
2018-01-21T20:08:20.425Z,95524
2018-01-21T20:10:49.298Z,95512
2018-01-21T20:13:17.430Z,95506
2018-01-21T20:15:45.525Z,95520
2018-01-21T20:18:13.598Z,95526
2018-01-21T20:20:41.724Z,95517
2018-01-21T20:23:10.611Z,95524
2018-01-21T20:25:38.758Z,95533
2018-01-21T20:28:06.984Z,95534
2018-01-21T20:30:35.873Z,95532
2018-01-21T20:33:04.695Z,95530
2018-01-21T20:35:32.770Z,95530
2018-01-21T20:38:01.754Z,95528
2018-01-21T20:40:30.622Z,95545
2018-01-21T20:42:58.934Z,95531
2018-01-21T20:45:27.745Z,95526
2018-01-21T20:47:55.806Z,95534
2018-01-21T20:50:23.874Z,95513
2018-01-21T20:52:52.731Z,95517
2018-01-21T20:55:20.870Z,95519
2018-01-21T20:57:48.957Z,95521
2018-01-21T21:00:17.853Z,95519
2018-01-21T21:02:45.941Z,95501
2018-01-21T21:05:14.053Z,95490
2018-01-21T21:07:42.929Z,95487
2018-01-21T21:10:11.032Z,95500
2018-01-21T21:12:39.862Z,95491
2018-01-21T21:15:08.542Z,95485
2018-01-21T21:17:36.797Z,95478
2018-01-21T21:20:05.614Z,95479
2018-01-21T21:22:34.221Z,95469
2018-01-21T21:25:03.105Z,95472
2018-01-21T21:27:31.202Z,95470
2018-01-21T21:29:59.419Z,95469
2018-01-21T21:32:27.504Z,95465
2018-01-21T21:34:56.317Z,95465
2018-01-21T21:37:24.502Z,95450
2018-01-21T21:39:52.658Z,95463
2018-01-21T21:42:21.559Z,95447
2018-01-21T21:44:50.429Z,95433
2018-01-21T21:47:20.504Z,95440
2018-01-21T21:49:48.609Z,95424
2018-01-21T21:52:16.741Z,95414
2018-01-21T21:54:44.868Z,95406
2018-01-21T21:57:12.968Z,95414
2018-01-21T21:59:41.165Z,95410
2018-01-21T22:02:10.037Z,95399
2018-01-21T22:04:38.094Z,95394
2018-01-21T22:07:06.150Z,95394
2018-01-21T22:09:34.235Z,95378
2018-01-21T22:12:02.343Z,95394
2018-01-21T22:14:30.430Z,95374
2018-01-21T22:16:59.842Z,95377
2018-01-21T22:19:28.676Z,95377
2018-01-21T22:21:56.816Z,95386
2018-01-21T22:24:25.762Z,95389
2018-01-21T22:26:53.988Z,95391
2018-01-21T22:29:22.048Z,95395
2018-01-21T22:31:50.139Z,95386
2018-01-21T22:34:19.790Z,95383
2018-01-21T22:36:49.015Z,95395
2018-01-21T22:39:17.120Z,95387
2018-01-21T22:41:45.161Z,95370
2018-01-21T22:44:13.352Z,95359
2018-01-21T22:46:41.406Z,95363
2018-01-21T22:49:09.475Z,95358
2018-01-21T22:51:37.529Z,95348
2018-01-21T22:54:05.613Z,95342
2018-01-21T22:56:33.716Z,95345
2018-01-21T22:59:01.807Z,95336
2018-01-21T23:01:30.346Z,95341
2018-01-21T23:03:58.557Z,95335
2018-01-21T23:06:26.620Z,95320
2018-01-21T23:08:54.736Z,95336
2018-01-21T23:11:22.893Z,95323
2018-01-21T23:13:50.979Z,95315
2018-01-21T23:16:20.289Z,95322
2018-01-21T23:18:50.229Z,95314
2018-01-21T23:21:20.217Z,95302
2018-01-21T23:23:49.397Z,95298
2018-01-21T23:26:17.488Z,95311
2018-01-21T23:28:45.556Z,95310
2018-01-21T23:31:13.642Z,95298
2018-01-21T23:33:44.286Z,95292
2018-01-21T23:36:12.358Z,95289
2018-01-21T23:38:40.434Z,95292
2018-01-21T23:41:08.597Z,95289
2018-01-21T23:43:36.657Z,95264
2018-01-21T23:46:04.729Z,95249
2018-01-21T23:48:32.842Z,95266
2018-01-21T23:51:00.910Z,95248
2018-01-21T23:53:28.978Z,95238
2018-01-21T23:55:57.050Z,95234
2018-01-21T23:58:25.114Z,95226
